createdAt,value
2018-06-12T00:00:16.523Z,30.13
2018-06-12T00:02:54.435Z,30.48
2018-06-12T00:05:36.104Z,30.76
2018-06-12T00:08:13.053Z,30.41
2018-06-12T00:10:51.698Z,30.43
2018-06-12T00:13:27.815Z,30.26
2018-06-12T00:16:04.213Z,30.51
2018-06-12T00:18:40.111Z,30.09
2018-06-12T00:21:16.262Z,30.16
2018-06-12T00:23:52.792Z,30.38
2018-06-12T00:26:29.271Z,29.66
2018-06-12T00:29:06.640Z,30.32
2018-06-12T00:31:42.673Z,30.46
2018-06-12T00:34:18.766Z,30.13
2018-06-12T00:36:55.063Z,30.17
2018-06-12T00:39:31.297Z,29.91
2018-06-12T00:42:08.500Z,29.32
2018-06-12T00:47:25.757Z,29.99
2018-06-12T00:50:02.265Z,29.83
2018-06-12T00:52:38.117Z,29.90
2018-06-12T00:55:14.554Z,30.27
2018-06-12T00:58:19.068Z,30.02
2018-06-12T01:00:55.101Z,29.79
2018-06-12T01:03:31.293Z,29.54
2018-06-12T01:06:07.394Z,30.04
2018-06-12T01:08:43.842Z,30.46
2018-06-12T01:11:19.762Z,29.69
2018-06-12T01:13:55.738Z,30.11
2018-06-12T01:16:32.207Z,30.66
2018-06-12T01:19:07.971Z,30.73
2018-06-12T01:21:47.843Z,30.36
2018-06-12T01:24:23.323Z,30.69
2018-06-12T01:26:59.917Z,31.14
2018-06-12T01:29:36.991Z,31.23
2018-06-12T01:32:15.698Z,31.61
2018-06-12T01:34:51.772Z,31.33
2018-06-12T01:37:28.296Z,31.17
2018-06-12T01:40:05.425Z,31.62
2018-06-12T01:42:41.283Z,32.24
2018-06-12T01:45:18.484Z,31.84
2018-06-12T01:47:54.303Z,32.03
2018-06-12T01:50:30.091Z,32.05
2018-06-12T01:53:06.276Z,32.54
2018-06-12T01:55:42.505Z,32.36
2018-06-12T01:59:09.309Z,32.64
2018-06-12T02:01:45.064Z,31.80
2018-06-12T02:04:22.942Z,32.41
2018-06-12T02:06:59.658Z,32.85
2018-06-12T02:09:38.118Z,33.43
2018-06-12T02:12:14.028Z,32.68
2018-06-12T02:14:50.292Z,33.60
2018-06-12T02:17:27.547Z,33.28
2018-06-12T02:22:44.449Z,32.95
2018-06-12T02:25:23.878Z,33.55
2018-06-12T02:28:01.128Z,33.39
2018-06-12T02:30:38.098Z,34.58
2018-06-12T02:33:15.100Z,34.01
2018-06-12T02:35:51.083Z,33.64
2018-06-12T02:38:27.258Z,33.53
2018-06-12T02:41:03.083Z,34.25
2018-06-12T02:43:38.822Z,34.68
2018-06-12T02:46:14.750Z,34.09
2018-06-12T02:48:50.277Z,34.28
2018-06-12T02:51:26.083Z,34.67
2018-06-12T02:54:01.746Z,34.14
2018-06-12T02:56:37.758Z,34.47
2018-06-12T02:59:13.306Z,34.68
2018-06-12T03:01:48.722Z,34.47
2018-06-12T03:04:25.046Z,35.64
2018-06-12T03:07:00.715Z,34.66
2018-06-12T03:09:36.264Z,34.70
2018-06-12T03:12:12.526Z,34.78
2018-06-12T03:14:48.890Z,34.73
2018-06-12T03:17:24.948Z,35.09
2018-06-12T03:20:01.208Z,35.82
2018-06-12T03:22:37.082Z,36.05
2018-06-12T03:25:14.212Z,34.95
2018-06-12T03:27:50.321Z,35.96
2018-06-12T03:30:24.455Z,34.84
2018-06-12T03:33:01.865Z,35.64
2018-06-12T03:35:38.210Z,36.06
2018-06-12T03:38:15.322Z,35.29
2018-06-12T03:40:51.930Z,34.89
2018-06-12T03:43:28.136Z,35.57
2018-06-12T03:46:04.421Z,36.05
2018-06-12T03:48:40.855Z,34.99
2018-06-12T03:51:17.287Z,36.39
2018-06-12T03:53:57.540Z,36.96
2018-06-12T03:56:31.715Z,36.03
2018-06-12T03:59:10.631Z,35.65
2018-06-12T04:01:50.487Z,36.59
2018-06-12T04:04:28.818Z,36.70
2018-06-12T04:07:03.297Z,36.53
2018-06-12T04:09:39.412Z,37.22
2018-06-12T04:12:15.850Z,36.71
2018-06-12T04:14:52.282Z,36.65
2018-06-12T04:17:28.400Z,36.35
2018-06-12T04:20:04.338Z,37.03
2018-06-12T04:22:40.269Z,37.96
2018-06-12T04:25:16.496Z,37.34
2018-06-12T04:27:54.779Z,37.19
2018-06-12T04:30:30.866Z,36.75
2018-06-12T04:33:07.209Z,36.55
2018-06-12T04:35:43.312Z,37.14
2018-06-12T04:38:19.284Z,36.64
2018-06-12T04:40:55.680Z,36.73
2018-06-12T04:43:31.997Z,37.14
2018-06-12T04:46:08.213Z,36.76
2018-06-12T04:48:44.423Z,37.85
2018-06-12T04:51:20.816Z,37.46
2018-06-12T04:53:57.209Z,37.37
2018-06-12T04:56:33.426Z,37.71
2018-06-12T04:59:09.681Z,37.98
2018-06-12T05:01:46.244Z,38.32
2018-06-12T05:04:22.272Z,37.55
2018-06-12T05:09:22.286Z,37.64
2018-06-12T05:11:58.116Z,37.62
2018-06-12T05:14:34.065Z,37.68
2018-06-12T05:17:09.979Z,37.96
2018-06-12T05:19:46.272Z,38.86
2018-06-12T05:22:22.915Z,39.28
2018-06-12T05:26:17.511Z,39.38
2018-06-12T05:28:53.473Z,39.16
2018-06-12T05:31:29.267Z,38.97
2018-06-12T05:34:05.418Z,38.88
2018-06-12T05:36:41.342Z,39.98
2018-06-12T05:39:17.863Z,39.52
2018-06-12T05:41:54.211Z,39.51
2018-06-12T05:44:30.097Z,39.87
2018-06-12T05:47:06.095Z,39.43
2018-06-12T05:49:42.129Z,38.99
2018-06-12T05:54:52.666Z,40.21
2018-06-12T06:00:11.763Z,39.73
2018-06-12T06:02:48.268Z,39.77
2018-06-12T06:05:24.093Z,40.15
2018-06-12T06:08:02.103Z,40.24
2018-06-12T06:10:38.100Z,39.76
2018-06-12T06:13:14.294Z,40.21
2018-06-12T06:16:45.139Z,39.96
2018-06-12T06:19:21.288Z,39.33
2018-06-12T06:21:57.090Z,40.56
2018-06-12T06:24:33.293Z,39.22
2018-06-12T06:27:09.456Z,39.89
2018-06-12T06:29:45.481Z,40.70
2018-06-12T06:32:21.450Z,40.14
2018-06-12T06:34:56.864Z,39.76
2018-06-12T06:37:32.739Z,39.61
2018-06-12T06:40:08.544Z,40.37
2018-06-12T06:42:44.271Z,40.26
2018-06-12T06:45:20.214Z,40.12
2018-06-12T06:47:59.854Z,40.58
2018-06-12T06:50:35.304Z,41.29
2018-06-12T06:54:28.480Z,41.71
2018-06-12T06:57:02.219Z,40.97
2018-06-12T07:01:27.914Z,41.57
2018-06-12T07:04:02.286Z,41.25
2018-06-12T07:06:39.238Z,41.40
2018-06-12T07:09:16.285Z,42.19
2018-06-12T07:11:52.257Z,42.66
2018-06-12T07:14:28.350Z,42.24
2018-06-12T07:17:04.345Z,42.16
2018-06-12T07:19:40.333Z,42.45
2018-06-12T07:22:16.566Z,42.31
2018-06-12T07:24:54.461Z,42.60
2018-06-12T07:27:30.573Z,42.29
2018-06-12T07:30:07.041Z,42.58
2018-06-12T07:32:44.118Z,43.06
2018-06-12T07:35:21.315Z,42.27
2018-06-12T07:37:57.108Z,42.87
2018-06-12T07:40:32.849Z,42.01
2018-06-12T07:43:08.845Z,42.23
2018-06-12T07:45:44.427Z,42.03
2018-06-12T07:48:21.267Z,42.43
2018-06-12T07:50:56.847Z,43.38
2018-06-12T07:55:56.277Z,42.19
2018-06-12T07:59:36.759Z,42.09
2018-06-12T08:05:05.494Z,42.87
2018-06-12T08:07:41.333Z,43.51
2018-06-12T08:10:18.286Z,42.54
2018-06-12T08:12:54.409Z,43.33
2018-06-12T08:15:30.501Z,43.40
2018-06-12T08:18:06.881Z,43.05
2018-06-12T08:20:42.769Z,42.52
2018-06-12T08:23:18.835Z,42.68
2018-06-12T08:25:54.814Z,42.36
2018-06-12T08:28:30.458Z,42.79
2018-06-12T08:31:06.296Z,42.76
2018-06-12T08:33:42.567Z,42.97
2018-06-12T08:36:18.343Z,42.97
2018-06-12T08:38:54.229Z,43.76
2018-06-12T08:41:32.096Z,43.31
2018-06-12T08:44:09.449Z,43.38
2018-06-12T08:46:45.394Z,43.25
2018-06-12T08:49:21.455Z,43.54
2018-06-12T08:51:57.488Z,42.62
2018-06-12T08:54:33.437Z,42.70
2018-06-12T08:57:09.428Z,42.66
2018-06-12T08:59:47.212Z,43.13
2018-06-12T09:02:23.090Z,43.83
2018-06-12T09:04:59.211Z,43.31
2018-06-12T09:07:35.167Z,43.91
2018-06-12T09:10:11.221Z,43.14
2018-06-12T09:12:46.946Z,43.20
2018-06-12T09:15:23.112Z,43.18
2018-06-12T09:17:59.102Z,43.51
2018-06-12T09:20:37.270Z,43.68
2018-06-12T09:23:13.268Z,43.02
2018-06-12T09:25:49.299Z,44.04
2018-06-12T09:28:25.327Z,44.12
2018-06-12T09:31:01.214Z,43.90
2018-06-12T09:33:36.820Z,42.88
2018-06-12T09:36:16.833Z,43.90
2018-06-12T09:38:52.484Z,43.90
2018-06-12T09:41:28.278Z,44.14
2018-06-12T09:44:02.080Z,44.18
2018-06-12T09:46:38.075Z,43.56
2018-06-12T09:49:13.971Z,43.79
2018-06-12T09:51:50.107Z,43.07
2018-06-12T09:54:26.281Z,43.17
2018-06-12T09:57:03.102Z,43.32
2018-06-12T09:59:39.100Z,44.20
2018-06-12T10:02:14.879Z,43.76
2018-06-12T10:04:52.123Z,43.16
2018-06-12T10:07:28.113Z,43.42
2018-06-12T10:10:04.283Z,43.38
2018-06-12T10:12:40.093Z,43.45
2018-06-12T10:15:16.101Z,44.36
2018-06-12T10:17:52.082Z,44.53
2018-06-12T10:20:28.269Z,43.56
2018-06-12T10:23:04.347Z,43.79
2018-06-12T10:25:40.285Z,44.67
2018-06-12T10:28:16.294Z,43.94
2018-06-12T10:30:52.274Z,43.94
2018-06-12T10:33:27.453Z,44.49
2018-06-12T10:36:04.362Z,43.94
2018-06-12T10:38:40.296Z,44.22
2018-06-12T10:41:16.090Z,44.88
2018-06-12T10:43:52.109Z,44.33
2018-06-12T10:46:27.853Z,44.02
2018-06-12T10:49:03.789Z,44.57
2018-06-12T10:51:39.768Z,43.68
2018-06-12T10:54:15.688Z,43.97
2018-06-12T10:56:52.213Z,44.24
2018-06-12T10:59:28.099Z,44.85
2018-06-12T11:02:04.210Z,44.45
2018-06-12T11:04:40.278Z,44.16
2018-06-12T11:07:16.119Z,45.20
2018-06-12T11:09:52.213Z,45.09
2018-06-12T11:12:28.209Z,44.54
2018-06-12T11:15:04.101Z,45.81
2018-06-12T11:17:40.100Z,45.82
2018-06-12T11:20:16.277Z,45.37
2018-06-12T11:22:52.117Z,45.04
2018-06-12T11:25:27.978Z,45.55
2018-06-12T11:28:04.090Z,46.05
2018-06-12T11:30:39.958Z,45.86
2018-06-12T11:33:16.081Z,45.80
2018-06-12T11:35:52.098Z,45.71
2018-06-12T11:38:27.897Z,46.37
2018-06-12T11:41:03.552Z,45.24
2018-06-12T11:43:39.274Z,45.96
2018-06-12T11:46:15.207Z,45.84
2018-06-12T11:48:51.092Z,46.24
2018-06-12T11:51:27.094Z,46.18
2018-06-12T11:54:03.074Z,46.00
2018-06-12T11:56:39.114Z,45.67
2018-06-12T11:59:15.211Z,45.49
2018-06-12T12:01:51.150Z,45.47
2018-06-12T12:04:28.122Z,45.62
2018-06-12T12:07:04.105Z,46.52
2018-06-12T12:09:40.051Z,46.50
2018-06-12T12:12:20.579Z,46.28
2018-06-12T12:14:56.096Z,46.40
2018-06-12T12:17:34.274Z,45.73
2018-06-12T12:20:10.214Z,46.51
2018-06-12T12:22:46.095Z,46.27
2018-06-12T12:25:22.424Z,46.35
2018-06-12T12:27:58.506Z,45.86
2018-06-12T12:30:36.130Z,45.56
2018-06-12T12:33:12.104Z,45.46
2018-06-12T12:35:49.530Z,45.22
2018-06-12T12:38:25.214Z,46.00
2018-06-12T12:41:01.271Z,46.04
2018-06-12T12:43:37.136Z,45.11
2018-06-12T12:46:13.086Z,45.50
2018-06-12T12:48:48.855Z,46.01
2018-06-12T12:51:24.514Z,45.54
2018-06-12T12:54:00.263Z,46.12
2018-06-12T12:56:37.086Z,45.67
2018-06-12T12:59:13.081Z,45.39
2018-06-12T13:01:48.738Z,45.43
2018-06-12T13:04:24.478Z,46.10
2018-06-12T13:07:00.254Z,46.71
2018-06-12T13:09:35.916Z,46.61
2018-06-12T13:12:11.728Z,46.07
2018-06-12T13:14:50.108Z,46.14
2018-06-12T13:17:26.069Z,45.81
2018-06-12T13:20:01.558Z,46.92
2018-06-12T13:22:37.335Z,46.14
2018-06-12T13:25:13.089Z,46.36
2018-06-12T13:27:48.841Z,46.79
2018-06-12T13:30:25.088Z,47.19
2018-06-12T13:33:01.086Z,47.13
2018-06-12T13:35:37.208Z,46.44
2018-06-12T13:38:13.257Z,46.32
2018-06-12T13:40:48.991Z,47.05
2018-06-12T13:43:25.069Z,46.23
2018-06-12T13:46:00.734Z,47.12
2018-06-12T13:48:36.520Z,46.99
2018-06-12T13:51:12.265Z,46.96
2018-06-12T13:53:48.254Z,46.93
2018-06-12T13:56:24.075Z,46.73
2018-06-12T13:58:59.846Z,47.10
2018-06-12T14:01:35.742Z,47.13
2018-06-12T14:04:11.757Z,47.29
2018-06-12T14:06:47.865Z,47.05
2018-06-12T14:09:23.639Z,48.09
2018-06-12T14:11:59.527Z,47.74
2018-06-12T14:14:35.083Z,47.24
2018-06-12T14:17:11.891Z,48.51
2018-06-12T14:19:49.086Z,48.41
2018-06-12T14:22:26.666Z,47.80
2018-06-12T14:25:03.757Z,47.77
2018-06-12T14:27:40.768Z,48.00
2018-06-12T14:30:17.515Z,48.07
2018-06-12T14:32:54.313Z,48.36
2018-06-12T14:35:29.649Z,48.25
2018-06-12T14:38:08.415Z,47.81
2018-06-12T14:40:46.015Z,47.58
2018-06-12T14:43:22.994Z,47.83
2018-06-12T14:46:00.302Z,48.68
2018-06-12T14:48:37.766Z,48.84
2018-06-12T14:51:17.073Z,48.20
2018-06-12T14:53:54.085Z,48.25
2018-06-12T14:56:30.998Z,48.74
2018-06-12T14:59:09.118Z,48.91
2018-06-12T15:01:46.850Z,48.77
2018-06-12T15:04:24.790Z,48.47
2018-06-12T15:07:03.281Z,48.64
2018-06-12T15:09:41.098Z,49.18
2018-06-12T15:12:18.962Z,49.56
2018-06-12T15:14:56.093Z,49.29
2018-06-12T15:17:34.100Z,48.78
2018-06-12T15:20:12.095Z,49.53
2018-06-12T15:22:49.784Z,49.12
2018-06-12T15:25:27.323Z,49.14
2018-06-12T15:28:05.758Z,49.34
2018-06-12T15:30:43.662Z,49.83
2018-06-12T15:33:21.474Z,49.47
2018-06-12T15:35:59.053Z,49.37
2018-06-12T15:38:37.301Z,49.26
2018-06-12T15:41:14.122Z,48.75
2018-06-12T15:43:51.421Z,49.63
2018-06-12T15:46:27.311Z,49.42
2018-06-12T15:49:03.075Z,48.41
2018-06-12T15:51:38.847Z,48.46
2018-06-12T15:54:14.642Z,48.88
2018-06-12T15:56:50.263Z,49.65
2018-06-12T15:59:26.080Z,50.04
2018-06-12T16:02:01.490Z,50.24
2018-06-12T16:04:37.521Z,50.21
2018-06-12T16:07:13.263Z,49.96
2018-06-12T16:09:49.061Z,49.76
2018-06-12T16:12:24.992Z,49.85
2018-06-12T16:15:00.738Z,49.22
2018-06-12T16:17:36.542Z,49.42
2018-06-12T16:20:12.259Z,48.93
2018-06-12T16:22:48.211Z,49.62
2018-06-12T16:25:23.867Z,49.55
2018-06-12T16:27:59.789Z,48.86
2018-06-12T16:30:35.792Z,48.66
2018-06-12T16:33:11.274Z,48.68
2018-06-12T16:35:47.110Z,48.59
2018-06-12T16:38:23.110Z,48.63
2018-06-12T16:40:59.261Z,48.06
2018-06-12T16:43:35.004Z,48.69
2018-06-12T16:46:11.091Z,48.86
2018-06-12T16:48:46.998Z,48.86
2018-06-12T16:51:22.933Z,48.49
2018-06-12T16:53:58.854Z,47.91
2018-06-12T16:56:36.105Z,47.52
2018-06-12T16:59:12.069Z,48.23
2018-06-12T17:01:48.119Z,47.88
2018-06-12T17:04:24.096Z,47.90
2018-06-12T17:06:59.846Z,47.16
2018-06-12T17:09:35.848Z,47.11
2018-06-12T17:12:11.864Z,47.93
2018-06-12T17:14:47.516Z,47.66
2018-06-12T17:17:22.997Z,46.77
2018-06-12T17:19:59.083Z,47.01
2018-06-12T17:22:34.885Z,46.48
2018-06-12T17:25:11.103Z,46.50
2018-06-12T17:27:46.934Z,47.22
2018-06-12T17:30:23.109Z,46.22
2018-06-12T17:32:59.094Z,46.21
2018-06-12T17:35:35.072Z,46.10
2018-06-12T17:38:11.882Z,47.04
2018-06-12T17:40:47.340Z,45.67
2018-06-12T17:43:25.276Z,46.13
2018-06-12T17:46:02.792Z,45.21
2018-06-12T17:48:40.051Z,45.82
2018-06-12T17:51:17.258Z,45.49
2018-06-12T17:53:55.465Z,46.06
2018-06-12T17:56:32.393Z,45.43
2018-06-12T17:59:09.267Z,45.85
2018-06-12T18:01:47.106Z,44.28
2018-06-12T18:04:24.085Z,45.40
2018-06-12T18:07:02.758Z,45.11
2018-06-12T18:09:39.899Z,44.71
2018-06-12T18:12:17.085Z,44.63
2018-06-12T18:14:54.492Z,45.64
2018-06-12T18:17:32.330Z,44.54
2018-06-12T18:20:09.763Z,44.68
2018-06-12T18:22:47.084Z,44.25
2018-06-12T18:25:24.845Z,43.28
2018-06-12T18:28:02.513Z,43.27
2018-06-12T18:30:39.087Z,43.39
2018-06-12T18:33:17.103Z,43.65
2018-06-12T18:35:55.090Z,43.05
2018-06-12T18:38:31.905Z,43.04
2018-06-12T18:41:08.910Z,42.65
2018-06-12T18:43:46.117Z,43.59
2018-06-12T18:46:23.791Z,42.04
2018-06-12T18:49:01.070Z,43.00
2018-06-12T18:51:38.761Z,42.81
2018-06-12T18:54:16.081Z,42.09
2018-06-12T18:56:54.295Z,41.11
2018-06-12T18:59:31.218Z,41.31
2018-06-12T19:02:09.088Z,42.20
2018-06-12T19:04:47.088Z,41.43
2018-06-12T19:07:25.110Z,41.88
2018-06-12T19:10:03.288Z,41.06
2018-06-12T19:12:41.062Z,41.09
2018-06-12T19:15:18.281Z,40.65
2018-06-12T19:17:55.706Z,40.95
2018-06-12T19:20:32.752Z,40.76
2018-06-12T19:23:10.209Z,40.53
2018-06-12T19:25:48.213Z,39.60
2018-06-12T19:28:26.210Z,40.99
2018-06-12T19:31:03.664Z,40.67
2018-06-12T19:33:40.263Z,39.78
2018-06-12T19:36:17.207Z,39.51
2018-06-12T19:38:54.534Z,39.62
2018-06-12T19:41:32.888Z,39.62
2018-06-12T19:44:11.076Z,38.89
2018-06-12T19:46:49.080Z,39.02
2018-06-12T19:49:25.763Z,38.70
2018-06-12T19:52:03.279Z,39.11
2018-06-12T19:54:41.462Z,37.76
2018-06-12T19:57:18.314Z,37.89
2018-06-12T19:59:55.753Z,37.96
2018-06-12T20:02:31.986Z,37.26
2018-06-12T20:05:09.862Z,37.52
2018-06-12T20:07:47.213Z,37.67
2018-06-12T20:10:25.263Z,36.79
2018-06-12T20:13:02.819Z,37.14
2018-06-12T20:15:41.090Z,36.02
2018-06-12T20:18:18.085Z,36.12
2018-06-12T20:20:56.083Z,36.27
2018-06-12T20:23:33.082Z,36.58
2018-06-12T20:26:11.456Z,36.73
2018-06-12T20:28:49.085Z,35.94
2018-06-12T20:31:27.518Z,35.03
2018-06-12T20:34:04.798Z,35.52
2018-06-12T20:36:42.765Z,35.86
2018-06-12T20:39:19.274Z,35.45
2018-06-12T20:41:54.723Z,35.72
2018-06-12T20:44:33.416Z,34.92
2018-06-12T20:47:10.858Z,34.93
2018-06-12T20:49:48.088Z,35.11
2018-06-12T20:52:25.402Z,34.93
2018-06-12T20:55:00.413Z,34.75
2018-06-12T20:57:37.263Z,33.74
2018-06-12T21:00:12.069Z,34.43
2018-06-12T21:02:50.087Z,33.73
2018-06-12T21:05:28.066Z,33.49
2018-06-12T21:08:06.023Z,33.59
2018-06-12T21:10:44.296Z,33.74
2018-06-12T21:13:19.957Z,34.00
2018-06-12T21:15:57.082Z,32.71
2018-06-12T21:18:34.466Z,34.25
2018-06-12T21:21:12.107Z,33.29
2018-06-12T21:23:49.086Z,33.82
2018-06-12T21:26:26.489Z,33.13
2018-06-12T21:29:04.269Z,33.30
2018-06-12T21:31:39.334Z,32.73
2018-06-12T21:34:17.526Z,33.11
2018-06-12T21:36:56.074Z,32.92
2018-06-12T21:39:34.102Z,33.85
2018-06-12T21:42:12.061Z,32.33
2018-06-12T21:44:49.259Z,32.75
2018-06-12T21:47:24.429Z,32.51
2018-06-12T21:50:02.051Z,32.59
2018-06-12T21:52:39.478Z,32.84
2018-06-12T21:55:17.208Z,32.46
2018-06-12T21:57:54.858Z,32.26
2018-06-12T22:00:41.084Z,33.03
2018-06-12T22:03:18.073Z,32.35
2018-06-12T22:05:56.082Z,32.73
2018-06-12T22:08:33.264Z,32.02
2018-06-12T22:11:08.975Z,32.48
2018-06-12T22:13:47.079Z,31.57
2018-06-12T22:16:29.494Z,32.80
2018-06-12T22:19:07.484Z,31.77
2018-06-12T22:21:45.289Z,31.67
2018-06-12T22:24:22.500Z,32.24
2018-06-12T22:27:00.090Z,31.86
2018-06-12T22:29:37.078Z,31.96
2018-06-12T22:32:13.952Z,31.73
2018-06-12T22:34:52.116Z,32.40
2018-06-12T22:37:28.897Z,31.09
2018-06-12T22:40:06.887Z,31.54
2018-06-12T22:42:44.085Z,31.10
2018-06-12T22:45:21.497Z,31.35
2018-06-12T22:47:58.294Z,31.42
2018-06-12T22:50:35.867Z,31.24
2018-06-12T22:53:12.411Z,31.91
2018-06-12T22:55:50.090Z,31.91
2018-06-12T22:58:28.810Z,32.47
2018-06-12T23:01:05.804Z,31.33
2018-06-12T23:03:41.711Z,31.18
2018-06-12T23:06:17.427Z,31.38
2018-06-12T23:08:53.529Z,31.59
2018-06-12T23:11:29.083Z,31.76
2018-06-12T23:14:05.969Z,32.11
2018-06-12T23:16:41.843Z,30.80
2018-06-12T23:19:18.105Z,31.54
2018-06-12T23:22:04.095Z,31.35
2018-06-12T23:24:43.654Z,30.74
2018-06-12T23:27:21.437Z,31.85
2018-06-12T23:30:01.095Z,31.57
2018-06-12T23:32:37.292Z,30.93
2018-06-12T23:37:50.589Z,31.60
2018-06-12T23:40:27.065Z,31.53
2018-06-12T23:43:03.950Z,32.41
2018-06-12T23:45:40.274Z,31.09
2018-06-12T23:48:14.508Z,30.86
2018-06-12T23:50:50.415Z,31.51
2018-06-12T23:53:26.206Z,30.98
2018-06-12T23:56:01.842Z,32.39
2018-06-12T23:58:37.674Z,31.97
